createdAt,value
2023-01-21T00:03:49.034Z,3.21
2023-01-21T00:08:53.169Z,3.04
2023-01-21T00:13:59.495Z,2.95
2023-01-21T00:19:04.873Z,2.41
2023-01-21T00:24:08.964Z,2.43
2023-01-21T00:29:13.619Z,2.38
2023-01-21T00:34:19.204Z,2.36
2023-01-21T00:39:24.871Z,1.93
2023-01-21T00:44:28.850Z,1.91
2023-01-21T00:49:34.594Z,2.01
2023-01-21T00:54:38.506Z,2.23
2023-01-21T00:59:42.669Z,2.29
2023-01-21T01:04:48.344Z,2.06
2023-01-21T01:09:52.344Z,2.01
2023-01-21T01:14:59.493Z,2.00
2023-01-21T01:20:08.176Z,2.08
2023-01-21T01:25:12.298Z,2.17
2023-01-21T01:30:17.197Z,2.26
2023-01-21T01:35:23.487Z,2.34
2023-01-21T01:40:27.654Z,2.37
2023-01-21T01:45:31.843Z,2.60
2023-01-21T01:50:39.811Z,2.43
2023-01-21T01:55:44.376Z,2.52
2023-01-21T02:00:48.666Z,2.49
2023-01-21T02:05:55.565Z,2.40
2023-01-21T02:11:01.103Z,2.33
2023-01-21T02:16:19.408Z,2.46
2023-01-21T02:21:51.288Z,2.61
2023-01-21T02:27:31.106Z,2.60
2023-01-21T02:32:44.618Z,2.62
2023-01-21T02:37:56.022Z,2.77
2023-01-21T02:43:08.291Z,2.76
2023-01-21T02:48:18.554Z,2.73
2023-01-21T02:53:28.777Z,3.02
2023-01-21T02:58:37.228Z,3.19
2023-01-21T03:03:56.195Z,3.23
2023-01-21T03:09:13.969Z,3.02
2023-01-21T03:14:41.301Z,3.21
2023-01-21T03:19:53.229Z,3.38
2023-01-21T03:25:00.155Z,3.25
2023-01-21T03:30:12.283Z,3.40
2023-01-21T03:35:23.782Z,3.30
2023-01-21T03:40:32.844Z,3.35
2023-01-21T03:45:41.833Z,3.27
2023-01-21T03:50:51.276Z,3.20
2023-01-21T03:55:56.837Z,3.27
2023-01-21T04:01:01.375Z,3.22
2023-01-21T04:06:05.615Z,3.12
2023-01-21T04:11:11.299Z,3.13
2023-01-21T04:16:15.429Z,3.22
2023-01-21T04:21:19.498Z,3.39
2023-01-21T04:26:24.874Z,3.29
2023-01-21T04:31:28.994Z,3.59
2023-01-21T04:36:33.358Z,3.81
2023-01-21T04:41:38.907Z,3.87
2023-01-21T04:46:42.990Z,3.84
2023-01-21T04:51:47.512Z,3.72
2023-01-21T04:56:52.910Z,3.69
2023-01-21T05:01:57.359Z,3.50
2023-01-21T05:07:01.344Z,3.29
2023-01-21T05:12:08.080Z,3.57
2023-01-21T05:17:12.108Z,3.48
2023-01-21T05:22:16.490Z,3.33
2023-01-21T05:27:22.364Z,3.32
2023-01-21T05:32:26.537Z,3.41
2023-01-21T05:37:30.520Z,3.37
2023-01-21T05:42:36.185Z,3.45
2023-01-21T05:47:40.394Z,3.54
2023-01-21T05:52:45.116Z,3.76
2023-01-21T05:57:51.678Z,3.79
2023-01-21T06:02:55.996Z,3.96
2023-01-21T06:08:01.649Z,4.00
2023-01-21T06:13:07.485Z,3.88
2023-01-21T06:18:12.239Z,4.17
2023-01-21T06:23:16.825Z,4.16
2023-01-21T06:28:23.070Z,4.08
2023-01-21T06:33:27.958Z,3.98
2023-01-21T06:38:36.076Z,4.04
2023-01-21T06:43:42.656Z,4.21
2023-01-21T06:48:47.555Z,4.43
2023-01-21T06:53:52.183Z,5.08
2023-01-21T06:58:58.118Z,5.30
2023-01-21T07:04:03.597Z,6.04
2023-01-21T07:09:09.226Z,6.98
2023-01-21T07:14:15.067Z,7.81
2023-01-21T07:19:21.055Z,7.97
2023-01-21T07:24:25.406Z,8.17
2023-01-21T07:29:35.839Z,8.24
2023-01-21T07:34:41.183Z,8.30
2023-01-21T07:39:45.300Z,8.69
2023-01-21T07:44:52.113Z,7.43
2023-01-21T07:49:56.381Z,7.58
2023-01-21T07:55:02.093Z,6.93
2023-01-21T08:00:09.050Z,6.15
2023-01-21T08:05:16.909Z,5.99
2023-01-21T08:10:22.454Z,6.84
2023-01-21T08:15:30.981Z,8.98
2023-01-21T08:20:35.202Z,9.66
2023-01-21T08:25:40.036Z,11.23
2023-01-21T08:30:45.680Z,10.95
2023-01-21T08:35:49.918Z,11.55
2023-01-21T08:40:53.904Z,11.51
2023-01-21T08:46:01.825Z,10.82
2023-01-21T08:51:06.787Z,10.65
2023-01-21T08:56:11.075Z,10.69
2023-01-21T09:01:17.326Z,10.90
2023-01-21T09:06:26.430Z,11.16
2023-01-21T09:11:31.235Z,11.26
2023-01-21T09:16:37.222Z,11.28
2023-01-21T09:21:41.909Z,11.17
2023-01-21T09:26:46.773Z,10.88
2023-01-21T09:31:53.041Z,10.60
2023-01-21T09:36:57.326Z,10.29
2023-01-21T09:42:03.457Z,10.37
2023-01-21T09:47:19.396Z,9.59
2023-01-21T09:52:31.583Z,8.93
2023-01-21T09:58:00.866Z,8.70
2023-01-21T10:03:19.084Z,9.85
2023-01-21T10:08:31.710Z,10.40
2023-01-21T10:14:00.806Z,8.99
2023-01-21T10:19:10.152Z,8.24
2023-01-21T10:24:18.952Z,8.15
2023-01-21T10:29:26.909Z,8.13
2023-01-21T10:34:37.511Z,8.17
2023-01-21T10:39:51.685Z,8.24
2023-01-21T10:45:08.460Z,8.32
2023-01-21T10:50:30.708Z,8.34
2023-01-21T10:55:51.695Z,8.39
2023-01-21T11:00:59.804Z,8.44
2023-01-21T11:06:09.058Z,8.59
2023-01-21T11:11:14.456Z,8.73
2023-01-21T11:16:34.031Z,8.72
2023-01-21T11:21:41.046Z,8.61
2023-01-21T11:26:52.976Z,8.76
2023-01-21T11:32:04.324Z,8.74
2023-01-21T11:37:22.191Z,8.74
2023-01-21T11:42:28.204Z,8.88
2023-01-21T11:47:39.615Z,8.96
2023-01-21T11:52:45.428Z,8.93
2023-01-21T11:57:55.154Z,8.72
2023-01-21T12:03:03.162Z,8.67
2023-01-21T12:08:15.164Z,8.49
2023-01-21T12:13:24.610Z,8.45
2023-01-21T12:18:43.492Z,8.26
2023-01-21T12:24:10.381Z,8.12
2023-01-21T12:29:34.509Z,8.07
2023-01-21T12:34:45.166Z,8.35
2023-01-21T12:39:54.439Z,8.38
2023-01-21T12:45:05.089Z,9.10
2023-01-21T12:50:20.857Z,9.48
2023-01-21T12:55:35.969Z,9.60
2023-01-21T13:00:45.214Z,9.53
2023-01-21T13:05:55.959Z,9.24
2023-01-21T13:11:08.955Z,9.06
2023-01-21T13:16:13.624Z,8.82
2023-01-21T13:21:28.386Z,8.63
2023-01-21T13:26:44.818Z,8.38
2023-01-21T13:31:52.957Z,8.38
2023-01-21T13:37:06.825Z,8.22
2023-01-21T13:42:28.430Z,8.20
2023-01-21T13:47:51.704Z,8.26
2023-01-21T13:53:28.194Z,8.26
2023-01-21T13:58:40.707Z,8.33
2023-01-21T14:03:51.366Z,8.31
2023-01-21T14:09:05.232Z,8.26
2023-01-21T14:14:42.621Z,8.34
2023-01-21T14:20:22.448Z,8.40
2023-01-21T14:25:39.051Z,8.40
2023-01-21T14:30:49.336Z,8.40
2023-01-21T14:36:02.488Z,8.03
2023-01-21T14:41:09.445Z,8.04
2023-01-21T14:46:29.936Z,7.85
2023-01-21T14:51:37.458Z,7.78
2023-01-21T14:56:54.783Z,7.76
2023-01-21T15:02:02.201Z,7.73
2023-01-21T15:07:10.906Z,7.68
2023-01-21T15:12:23.198Z,7.68
2023-01-21T15:18:03.496Z,7.66
2023-01-21T15:23:21.019Z,7.61
2023-01-21T15:28:48.388Z,7.64
2023-01-21T15:33:57.421Z,7.58
2023-01-21T15:39:04.251Z,7.47
2023-01-21T15:44:43.663Z,7.55
2023-01-21T15:49:59.697Z,7.42
2023-01-21T15:55:24.521Z,7.56
2023-01-21T16:00:38.111Z,7.56
2023-01-21T16:05:51.952Z,7.52
2023-01-21T16:11:08.869Z,7.55
2023-01-21T16:16:24.511Z,7.46
2023-01-21T16:21:33.628Z,7.67
2023-01-21T16:26:39.675Z,7.56
2023-01-21T16:31:50.706Z,7.56
2023-01-21T16:36:55.252Z,7.71
2023-01-21T16:42:05.772Z,7.80
2023-01-21T16:47:22.166Z,7.77
2023-01-21T16:52:26.863Z,7.83
2023-01-21T16:57:32.968Z,7.85
2023-01-21T17:02:39.962Z,7.75
2023-01-21T17:07:47.780Z,7.90
2023-01-21T17:12:57.136Z,8.01
2023-01-21T17:18:06.369Z,7.95
2023-01-21T17:23:17.737Z,7.98
2023-01-21T17:28:32.341Z,8.08
2023-01-21T17:33:37.965Z,8.08
2023-01-21T17:38:44.487Z,8.09
2023-01-21T17:43:51.262Z,8.18
2023-01-21T17:49:00.564Z,8.19
2023-01-21T17:54:05.908Z,8.24
2023-01-21T17:59:38.842Z,8.19
2023-01-21T18:04:44.995Z,8.24
2023-01-21T18:09:50.097Z,8.40
2023-01-21T18:14:55.814Z,8.46
2023-01-21T18:20:01.879Z,8.38
2023-01-21T18:25:11.944Z,8.35
2023-01-21T18:30:24.208Z,8.42
2023-01-21T18:35:42.466Z,8.30
2023-01-21T18:40:55.758Z,8.42
2023-01-21T18:46:05.718Z,8.34
2023-01-21T18:51:15.194Z,8.44
2023-01-21T18:56:20.643Z,8.60
2023-01-21T19:01:26.555Z,8.54
2023-01-21T19:06:38.112Z,8.55
2023-01-21T19:11:42.846Z,8.48
2023-01-21T19:16:54.078Z,8.74
2023-01-21T19:22:00.537Z,8.66
2023-01-21T19:27:06.414Z,8.55
2023-01-21T19:32:15.153Z,8.66
2023-01-21T19:37:25.286Z,8.50
2023-01-21T19:42:29.618Z,8.34
2023-01-21T19:47:34.363Z,8.44
2023-01-21T19:52:40.979Z,8.52
2023-01-21T19:57:46.817Z,8.62
2023-01-21T20:02:51.503Z,8.40
2023-01-21T20:07:58.192Z,8.33
2023-01-21T20:13:02.214Z,8.37
2023-01-21T20:18:08.033Z,8.38
2023-01-21T20:23:15.767Z,8.36
2023-01-21T20:28:23.817Z,8.49
2023-01-21T20:33:27.937Z,8.50
2023-01-21T20:38:35.628Z,8.46
2023-01-21T20:43:39.766Z,8.33
2023-01-21T20:48:46.055Z,8.30
2023-01-21T20:53:52.883Z,8.26
2023-01-21T20:59:04.221Z,8.32
2023-01-21T21:04:08.315Z,8.41
2023-01-21T21:09:13.729Z,8.26
2023-01-21T21:14:17.731Z,8.27
2023-01-21T21:19:25.642Z,8.26
2023-01-21T21:24:31.032Z,8.39
2023-01-21T21:29:35.079Z,8.29
2023-01-21T21:34:39.055Z,8.33
2023-01-21T21:39:44.493Z,8.37
2023-01-21T21:44:49.021Z,8.36
2023-01-21T21:49:52.942Z,8.36
2023-01-21T21:54:58.371Z,8.26
2023-01-21T22:00:02.335Z,8.27
2023-01-21T22:05:11.732Z,8.25
2023-01-21T22:10:19.586Z,8.22
2023-01-21T22:15:24.235Z,8.11
2023-01-21T22:20:28.221Z,7.93
2023-01-21T22:25:33.598Z,7.87
2023-01-21T22:30:37.738Z,7.91
2023-01-21T22:35:42.051Z,7.89
2023-01-21T22:40:54.543Z,7.87
2023-01-21T22:46:00.231Z,7.82
2023-01-21T22:51:04.271Z,7.83
2023-01-21T22:56:09.845Z,7.91
2023-01-21T23:01:23.896Z,7.91
2023-01-21T23:06:28.286Z,7.85
2023-01-21T23:11:33.621Z,7.96
2023-01-21T23:16:37.676Z,8.09
2023-01-21T23:21:41.939Z,8.20
2023-01-21T23:26:47.644Z,8.18
2023-01-21T23:31:52.401Z,8.04
2023-01-21T23:36:56.524Z,7.97
2023-01-21T23:42:02.252Z,7.86
2023-01-21T23:47:06.645Z,7.77
2023-01-21T23:52:12.621Z,7.71
2023-01-21T23:57:18.323Z,7.76
